createdAt,value
2022-11-15T00:00:55.973Z,8.90
2022-11-15T00:03:26.423Z,8.90
2022-11-15T00:05:53.207Z,8.80
2022-11-15T00:08:20.330Z,9.00
2022-11-15T00:10:57.654Z,9.00
2022-11-15T00:13:24.639Z,8.90
2022-11-15T00:15:51.446Z,9.00
2022-11-15T00:18:18.674Z,9.00
2022-11-15T00:20:45.790Z,9.20
2022-11-15T00:23:12.594Z,9.10
2022-11-15T00:25:39.340Z,9.20
2022-11-15T00:28:06.121Z,9.20
2022-11-15T00:30:32.911Z,9.20
2022-11-15T00:33:04.510Z,9.30
2022-11-15T00:35:34.934Z,9.30
2022-11-15T00:38:02.908Z,9.40
2022-11-15T00:40:30.074Z,9.40
2022-11-15T00:42:56.815Z,9.50
2022-11-15T00:45:24.000Z,9.40
2022-11-15T00:47:51.151Z,9.40
2022-11-15T00:50:18.169Z,9.50
2022-11-15T00:52:45.281Z,9.50
2022-11-15T00:55:17.162Z,9.50
2022-11-15T00:57:44.255Z,9.50
2022-11-15T01:00:11.874Z,9.40
2022-11-15T01:02:38.666Z,9.50
2022-11-15T01:05:05.918Z,9.40
2022-11-15T01:07:32.696Z,9.50
2022-11-15T01:09:59.529Z,9.40
2022-11-15T01:12:26.259Z,9.50
2022-11-15T01:14:53.402Z,9.40
2022-11-15T01:17:20.197Z,9.50
2022-11-15T01:19:47.035Z,9.50
2022-11-15T01:22:13.798Z,9.50
2022-11-15T01:24:40.502Z,9.50
2022-11-15T01:27:07.345Z,9.50
2022-11-15T01:29:34.133Z,9.50
2022-11-15T01:32:00.923Z,9.60
2022-11-15T01:34:27.689Z,9.50
2022-11-15T01:36:54.428Z,9.60
2022-11-15T01:39:21.188Z,9.70
2022-11-15T01:41:47.988Z,9.70
2022-11-15T01:44:32.908Z,9.70
2022-11-15T01:47:01.617Z,9.70
2022-11-15T01:49:32.189Z,9.70
2022-11-15T01:52:00.125Z,9.70
2022-11-15T01:54:27.955Z,9.80
2022-11-15T01:57:06.002Z,9.80
2022-11-15T01:59:32.747Z,9.80
2022-11-15T02:01:59.692Z,9.90
2022-11-15T02:04:30.095Z,9.90
2022-11-15T02:06:56.909Z,9.80
2022-11-15T02:09:24.049Z,9.90
2022-11-15T02:11:51.727Z,9.80
2022-11-15T02:14:21.137Z,9.90
2022-11-15T02:17:08.134Z,9.90
2022-11-15T02:19:34.864Z,9.90
2022-11-15T02:22:39.349Z,9.90
2022-11-15T02:25:27.889Z,10.00
2022-11-15T02:28:15.820Z,10.00
2022-11-15T02:31:04.477Z,9.90
2022-11-15T02:33:51.251Z,10.00
2022-11-15T02:36:42.809Z,10.00
2022-11-15T02:39:36.019Z,10.00
2022-11-15T02:42:32.639Z,10.00
2022-11-15T02:45:04.513Z,10.00
2022-11-15T02:47:43.421Z,10.00
2022-11-15T02:50:12.123Z,10.00
2022-11-15T02:52:39.138Z,10.00
2022-11-15T02:55:06.199Z,10.00
2022-11-15T02:57:51.883Z,10.10
2022-11-15T03:00:19.708Z,10.00
2022-11-15T03:02:55.663Z,10.00
2022-11-15T03:05:44.069Z,10.00
2022-11-15T03:11:20.614Z,10.00
2022-11-15T03:14:14.043Z,10.00
2022-11-15T03:17:40.922Z,10.10
2022-11-15T03:23:02.286Z,10.10
2022-11-15T03:25:29.914Z,10.10
2022-11-15T03:28:00.128Z,10.00
2022-11-15T03:30:27.455Z,10.00
2022-11-15T03:32:57.479Z,10.00
2022-11-15T03:35:26.779Z,10.10
2022-11-15T03:37:53.592Z,10.10
2022-11-15T03:40:35.552Z,10.00
2022-11-15T03:43:34.933Z,10.10
2022-11-15T03:46:04.047Z,10.10
2022-11-15T03:48:36.248Z,10.20
2022-11-15T03:51:04.423Z,10.10
2022-11-15T03:53:32.986Z,10.20
2022-11-15T03:55:59.918Z,10.10
2022-11-15T03:58:26.597Z,10.20
2022-11-15T04:00:53.421Z,10.10
2022-11-15T04:03:20.794Z,10.10
2022-11-15T04:05:47.649Z,10.10
2022-11-15T04:08:14.425Z,10.10
2022-11-15T04:10:41.217Z,10.10
2022-11-15T04:13:08.023Z,10.00
2022-11-15T04:15:34.923Z,10.10
2022-11-15T04:18:01.737Z,10.10
2022-11-15T04:20:49.054Z,10.00
2022-11-15T04:23:42.040Z,10.00
2022-11-15T04:26:20.748Z,10.00
2022-11-15T04:29:06.382Z,10.00
2022-11-15T04:31:33.196Z,10.00
2022-11-15T04:34:00.293Z,10.00
2022-11-15T04:36:45.761Z,9.90
2022-11-15T04:39:12.604Z,10.00
2022-11-15T04:41:39.358Z,10.00
2022-11-15T04:44:06.119Z,10.00
2022-11-15T04:46:33.697Z,10.00
2022-11-15T04:49:00.435Z,9.90
2022-11-15T04:51:27.232Z,10.00
2022-11-15T04:53:53.977Z,9.90
2022-11-15T04:56:20.952Z,9.90
2022-11-15T04:58:50.628Z,9.90
2022-11-15T05:01:17.501Z,9.90
2022-11-15T05:04:03.391Z,9.80
2022-11-15T05:06:30.769Z,9.80
2022-11-15T05:08:57.754Z,9.80
2022-11-15T05:11:24.582Z,9.80
2022-11-15T05:13:51.548Z,9.80
2022-11-15T05:16:18.385Z,9.80
2022-11-15T05:18:45.231Z,9.80
2022-11-15T05:21:14.252Z,9.70
2022-11-15T05:23:41.982Z,9.70
2022-11-15T05:26:09.720Z,9.70
2022-11-15T05:28:37.539Z,9.70
2022-11-15T05:31:06.046Z,9.60
2022-11-15T05:33:33.757Z,9.60
2022-11-15T05:36:06.608Z,9.50
2022-11-15T05:38:33.878Z,9.50
2022-11-15T05:41:04.328Z,9.50
2022-11-15T05:43:32.115Z,9.50
2022-11-15T05:45:59.417Z,9.50
2022-11-15T05:48:26.393Z,9.50
2022-11-15T05:50:53.552Z,9.40
2022-11-15T05:53:22.558Z,9.40
2022-11-15T05:55:49.335Z,9.40
2022-11-15T05:58:16.171Z,9.40
2022-11-15T06:00:44.237Z,9.30
2022-11-15T06:03:11.569Z,9.30
2022-11-15T06:05:38.349Z,9.30
2022-11-15T06:08:05.113Z,9.30
2022-11-15T06:10:31.844Z,9.30
2022-11-15T06:13:03.353Z,9.30
2022-11-15T06:15:30.346Z,9.30
2022-11-15T06:17:58.531Z,9.20
2022-11-15T06:20:26.428Z,9.30
2022-11-15T06:23:01.345Z,9.30
2022-11-15T06:25:29.229Z,9.20
2022-11-15T06:27:57.613Z,9.20
2022-11-15T06:30:25.331Z,9.20
2022-11-15T06:32:52.377Z,9.20
2022-11-15T06:35:19.149Z,9.20
2022-11-15T06:37:45.952Z,9.20
2022-11-15T06:40:12.892Z,9.20
2022-11-15T06:42:39.765Z,9.20
2022-11-15T06:45:06.954Z,9.20
2022-11-15T06:47:33.719Z,9.10
2022-11-15T06:50:00.450Z,9.20
2022-11-15T06:52:27.901Z,9.10
2022-11-15T06:54:54.782Z,9.10
2022-11-15T06:57:21.515Z,9.10
2022-11-15T06:59:48.309Z,9.10
2022-11-15T07:02:15.190Z,9.00
2022-11-15T07:04:41.995Z,9.00
2022-11-15T07:07:11.896Z,9.00
2022-11-15T07:09:38.755Z,9.00
2022-11-15T07:12:07.881Z,9.00
2022-11-15T07:14:35.448Z,8.90
2022-11-15T07:17:04.957Z,8.90
2022-11-15T07:19:32.337Z,8.90
2022-11-15T07:21:59.083Z,8.90
2022-11-15T07:24:25.860Z,8.90
2022-11-15T07:26:52.794Z,8.90
2022-11-15T07:29:19.810Z,8.90
2022-11-15T07:31:46.609Z,8.80
2022-11-15T07:34:13.388Z,8.80
2022-11-15T07:36:40.165Z,8.80
2022-11-15T07:39:06.916Z,8.80
2022-11-15T07:41:33.744Z,8.90
2022-11-15T07:44:01.355Z,8.80
2022-11-15T07:46:28.116Z,8.80
2022-11-15T07:48:54.914Z,8.90
2022-11-15T07:51:21.638Z,8.90
2022-11-15T07:53:48.347Z,8.90
2022-11-15T07:56:15.111Z,8.90
2022-11-15T07:58:42.251Z,8.90
2022-11-15T08:01:10.482Z,8.90
2022-11-15T08:03:37.676Z,8.90
2022-11-15T08:06:04.672Z,8.90
2022-11-15T08:08:31.488Z,8.90
2022-11-15T08:10:59.177Z,8.90
2022-11-15T08:13:25.943Z,8.90
2022-11-15T08:15:57.553Z,9.00
2022-11-15T08:18:24.568Z,9.00
2022-11-15T08:20:51.396Z,9.00
2022-11-15T08:23:18.195Z,9.00
2022-11-15T08:25:44.950Z,9.00
2022-11-15T08:28:12.302Z,9.00
2022-11-15T08:30:43.079Z,9.00
2022-11-15T08:33:14.164Z,9.00
2022-11-15T08:35:42.632Z,9.00
2022-11-15T08:38:09.634Z,9.00
2022-11-15T08:40:36.684Z,9.00
2022-11-15T08:43:03.995Z,9.00
2022-11-15T08:45:31.585Z,9.10
2022-11-15T08:47:58.540Z,9.10
2022-11-15T08:50:25.286Z,9.10
2022-11-15T08:52:52.107Z,9.10
2022-11-15T08:55:18.968Z,9.20
2022-11-15T08:57:46.372Z,9.20
2022-11-15T09:00:14.337Z,9.20
2022-11-15T09:02:41.601Z,9.20
2022-11-15T09:05:09.269Z,9.20
2022-11-15T09:07:36.711Z,9.30
2022-11-15T09:10:04.272Z,9.30
2022-11-15T09:12:31.061Z,9.40
2022-11-15T09:14:57.931Z,9.40
2022-11-15T09:17:25.328Z,9.40
2022-11-15T09:19:52.246Z,9.40
2022-11-15T09:22:19.014Z,9.40
2022-11-15T09:24:45.821Z,9.50
2022-11-15T09:27:13.586Z,9.50
2022-11-15T09:29:40.464Z,9.50
2022-11-15T09:32:09.041Z,9.50
2022-11-15T09:34:35.833Z,9.60
2022-11-15T09:37:02.648Z,9.60
2022-11-15T09:39:29.458Z,9.70
2022-11-15T09:42:34.358Z,9.70
2022-11-15T09:45:19.823Z,9.80
2022-11-15T09:47:46.709Z,9.80
2022-11-15T09:50:15.914Z,10.00
2022-11-15T09:52:45.553Z,10.00
2022-11-15T09:55:22.572Z,10.00
2022-11-15T09:58:05.129Z,10.00
2022-11-15T10:00:46.522Z,10.00
2022-11-15T10:03:19.065Z,10.10
2022-11-15T10:05:50.860Z,10.10
2022-11-15T10:08:45.669Z,10.20
2022-11-15T10:14:12.248Z,10.30
2022-11-15T10:17:16.814Z,10.40
2022-11-15T10:20:06.548Z,10.40
2022-11-15T10:22:51.723Z,10.50
2022-11-15T10:25:24.915Z,10.50
2022-11-15T10:28:17.989Z,10.50
2022-11-15T10:30:50.781Z,10.50
2022-11-15T10:33:17.534Z,10.70
2022-11-15T10:35:44.641Z,11.20
2022-11-15T10:38:12.694Z,11.40
2022-11-15T10:40:41.111Z,11.40
2022-11-15T10:43:10.566Z,11.40
2022-11-15T10:45:39.328Z,11.40
2022-11-15T10:48:15.454Z,11.40
2022-11-15T10:50:44.838Z,11.40
2022-11-15T10:53:23.766Z,11.30
2022-11-15T10:55:53.621Z,11.30
2022-11-15T10:58:44.165Z,11.30
2022-11-15T11:01:14.769Z,11.30
2022-11-15T11:03:42.959Z,11.30
2022-11-15T11:06:18.025Z,11.30
2022-11-15T11:09:02.203Z,11.30
2022-11-15T11:11:49.831Z,11.30
2022-11-15T11:14:24.077Z,11.40
2022-11-15T11:17:04.030Z,11.40
2022-11-15T11:20:09.446Z,11.40
2022-11-15T11:22:38.892Z,11.50
2022-11-15T11:25:24.082Z,11.60
2022-11-15T11:28:10.172Z,11.60
2022-11-15T11:31:11.267Z,11.70
2022-11-15T11:33:50.362Z,11.70
2022-11-15T11:36:31.816Z,11.70
2022-11-15T11:39:08.840Z,11.80
2022-11-15T11:41:47.902Z,11.80
2022-11-15T11:44:30.096Z,11.80
2022-11-15T11:47:05.083Z,11.90
2022-11-15T11:49:33.656Z,12.00
2022-11-15T11:52:10.050Z,12.00
2022-11-15T11:54:48.472Z,12.00
2022-11-15T11:57:35.181Z,12.10
2022-11-15T12:00:15.612Z,12.20
2022-11-15T12:02:46.162Z,12.20
2022-11-15T12:05:37.814Z,12.20
2022-11-15T12:08:14.022Z,12.30
2022-11-15T12:10:41.297Z,12.30
2022-11-15T12:13:16.198Z,12.30
2022-11-15T12:16:19.038Z,12.40
2022-11-15T12:18:49.374Z,12.40
2022-11-15T12:21:30.047Z,12.40
2022-11-15T12:24:01.747Z,12.50
2022-11-15T12:26:34.279Z,12.50
2022-11-15T12:29:08.020Z,12.50
2022-11-15T12:31:35.423Z,12.60
2022-11-15T12:34:07.461Z,12.60
2022-11-15T12:36:45.425Z,12.70
2022-11-15T12:39:13.273Z,12.60
2022-11-15T12:41:44.773Z,12.70
2022-11-15T12:44:37.228Z,12.70
2022-11-15T12:47:10.081Z,12.70
2022-11-15T12:49:36.822Z,12.80
2022-11-15T12:52:04.064Z,12.80
2022-11-15T12:54:33.652Z,12.80
2022-11-15T12:57:09.389Z,12.80
2022-11-15T13:00:25.150Z,12.80
2022-11-15T13:03:19.360Z,12.90
2022-11-15T13:05:46.101Z,12.80
2022-11-15T13:08:36.720Z,12.90
2022-11-15T13:11:42.792Z,12.90
2022-11-15T13:14:37.691Z,12.90
2022-11-15T13:17:20.016Z,13.00
2022-11-15T13:19:50.351Z,13.00
2022-11-15T13:22:35.788Z,13.00
2022-11-15T13:25:02.634Z,13.00
2022-11-15T13:27:29.775Z,13.00
2022-11-15T13:29:56.614Z,13.10
2022-11-15T13:32:23.464Z,13.10
2022-11-15T13:34:53.714Z,13.10
2022-11-15T13:37:23.481Z,13.10
2022-11-15T13:39:50.724Z,13.10
2022-11-15T13:42:19.297Z,13.10
2022-11-15T13:45:01.222Z,13.10
2022-11-15T13:47:29.645Z,13.10
2022-11-15T13:50:00.201Z,13.10
2022-11-15T13:52:32.111Z,13.10
2022-11-15T13:55:18.856Z,13.10
2022-11-15T13:58:08.962Z,13.10
2022-11-15T14:00:39.609Z,13.10
2022-11-15T14:03:16.639Z,13.10
2022-11-15T14:05:43.631Z,13.10
2022-11-15T14:08:24.129Z,13.10
2022-11-15T14:11:11.668Z,13.10
2022-11-15T14:13:38.535Z,13.10
2022-11-15T14:16:15.566Z,13.10
2022-11-15T14:18:51.081Z,13.20
2022-11-15T14:21:19.461Z,13.20
2022-11-15T14:23:46.665Z,13.10
2022-11-15T14:26:33.563Z,13.10
2022-11-15T14:29:22.915Z,13.10
2022-11-15T14:31:49.707Z,13.20
2022-11-15T14:34:16.461Z,13.20
2022-11-15T14:36:43.551Z,13.10
2022-11-15T14:39:10.667Z,13.10
2022-11-15T14:41:40.736Z,13.10
2022-11-15T14:44:07.892Z,13.10
2022-11-15T14:46:34.667Z,13.10
2022-11-15T14:49:01.615Z,13.10
2022-11-15T14:51:28.381Z,13.10
2022-11-15T14:53:56.365Z,13.10
2022-11-15T14:56:23.238Z,13.10
2022-11-15T14:58:50.076Z,13.00
2022-11-15T15:01:25.844Z,13.00
2022-11-15T15:03:55.139Z,13.00
2022-11-15T15:06:21.891Z,13.00
2022-11-15T15:08:49.524Z,13.00
2022-11-15T15:11:28.505Z,13.00
2022-11-15T15:13:57.994Z,13.00
2022-11-15T15:16:25.381Z,13.00
2022-11-15T15:18:52.256Z,12.90
2022-11-15T15:21:24.480Z,12.90
2022-11-15T15:23:52.436Z,12.90
2022-11-15T15:26:19.269Z,12.90
2022-11-15T15:28:46.098Z,12.90
2022-11-15T15:31:12.891Z,12.90
2022-11-15T15:33:39.737Z,12.80
2022-11-15T15:36:06.768Z,12.80
2022-11-15T15:38:33.838Z,12.80
2022-11-15T15:41:02.992Z,12.80
2022-11-15T15:43:29.803Z,12.80
2022-11-15T15:45:56.544Z,12.80
2022-11-15T15:48:23.474Z,12.80
2022-11-15T15:50:50.373Z,12.70
2022-11-15T15:53:18.354Z,12.70
2022-11-15T15:55:45.316Z,12.70
2022-11-15T15:58:12.192Z,12.70
2022-11-15T16:00:39.826Z,12.70
2022-11-15T16:03:06.648Z,12.70
2022-11-15T16:05:33.417Z,12.60
2022-11-15T16:08:00.463Z,12.60
2022-11-15T16:10:29.956Z,12.60
2022-11-15T16:12:57.761Z,12.60
2022-11-15T16:15:26.812Z,12.60
2022-11-15T16:17:55.740Z,12.60
2022-11-15T16:20:33.499Z,12.50
2022-11-15T16:23:05.810Z,12.50
2022-11-15T16:25:42.294Z,12.50
2022-11-15T16:28:31.605Z,12.60
2022-11-15T16:31:05.696Z,12.50
2022-11-15T16:33:33.231Z,12.50
2022-11-15T16:36:00.219Z,12.50
2022-11-15T16:38:27.074Z,12.50
2022-11-15T16:40:53.918Z,12.50
2022-11-15T16:43:20.827Z,12.40
2022-11-15T16:45:47.663Z,12.50
2022-11-15T16:48:31.658Z,12.50
2022-11-15T16:50:59.486Z,12.40
2022-11-15T16:53:27.285Z,12.40
2022-11-15T16:55:55.629Z,12.40
2022-11-15T16:58:22.769Z,12.40
2022-11-15T17:00:57.245Z,12.40
2022-11-15T17:03:24.893Z,12.40
2022-11-15T17:05:52.168Z,12.40
2022-11-15T17:08:20.941Z,12.40
2022-11-15T17:10:47.741Z,12.40
2022-11-15T17:13:14.829Z,12.30
2022-11-15T17:15:41.606Z,12.30
2022-11-15T17:18:11.440Z,12.30
2022-11-15T17:20:38.248Z,12.30
2022-11-15T17:23:05.285Z,12.30
2022-11-15T17:25:32.044Z,12.30
2022-11-15T17:27:58.874Z,12.30
2022-11-15T17:30:25.771Z,12.30
2022-11-15T17:32:52.612Z,12.30
2022-11-15T17:35:19.394Z,12.30
2022-11-15T17:37:47.284Z,12.30
2022-11-15T17:40:14.226Z,12.30
2022-11-15T17:42:42.230Z,12.30
2022-11-15T17:45:10.848Z,12.30
2022-11-15T17:47:37.927Z,12.30
2022-11-15T17:50:05.230Z,12.20
2022-11-15T17:52:32.178Z,12.20
2022-11-15T17:54:58.964Z,12.30
2022-11-15T17:57:25.717Z,12.20
2022-11-15T17:59:52.590Z,12.20
2022-11-15T18:02:19.600Z,12.20
2022-11-15T18:04:46.850Z,12.20
2022-11-15T18:07:14.371Z,12.20
2022-11-15T18:09:44.302Z,12.20
2022-11-15T18:12:11.813Z,12.20
2022-11-15T18:14:39.150Z,12.20
2022-11-15T18:17:06.500Z,12.20
2022-11-15T18:19:33.718Z,12.10
2022-11-15T18:22:01.738Z,12.20
2022-11-15T18:24:30.826Z,12.20
2022-11-15T18:26:58.870Z,12.10
2022-11-15T18:29:25.846Z,12.20
2022-11-15T18:31:56.270Z,12.10
2022-11-15T18:34:24.884Z,12.10
2022-11-15T18:36:52.844Z,12.10
2022-11-15T18:39:20.184Z,12.10
2022-11-15T18:41:47.257Z,12.10
2022-11-15T18:44:14.845Z,12.10
2022-11-15T18:46:42.122Z,12.10
2022-11-15T18:49:09.877Z,12.10
2022-11-15T18:51:42.103Z,12.10
2022-11-15T18:54:10.770Z,12.10
2022-11-15T18:56:38.113Z,12.10
2022-11-15T18:59:05.493Z,12.10
2022-11-15T19:01:34.591Z,12.10
2022-11-15T19:04:12.825Z,12.10
2022-11-15T19:06:42.148Z,12.10
2022-11-15T19:09:10.258Z,12.10
2022-11-15T19:11:39.696Z,12.00
2022-11-15T19:14:14.991Z,12.10
2022-11-15T19:16:50.261Z,12.10
2022-11-15T19:19:19.551Z,12.10
2022-11-15T19:21:46.786Z,12.00
2022-11-15T19:24:14.419Z,12.10
2022-11-15T19:26:41.821Z,12.00
2022-11-15T19:29:13.899Z,12.00
2022-11-15T19:31:41.163Z,12.00
2022-11-15T19:34:08.479Z,12.10
2022-11-15T19:36:43.350Z,12.00
2022-11-15T19:39:13.127Z,12.10
2022-11-15T19:41:42.531Z,12.00
2022-11-15T19:44:11.217Z,12.00
2022-11-15T19:46:38.615Z,12.00
2022-11-15T19:49:07.968Z,12.00
2022-11-15T19:51:34.765Z,12.00
2022-11-15T19:54:06.448Z,12.00
2022-11-15T19:56:34.551Z,12.00
2022-11-15T19:59:01.727Z,12.00
2022-11-15T20:01:31.430Z,12.00
2022-11-15T20:03:59.648Z,12.00
2022-11-15T20:06:35.665Z,12.00
2022-11-15T20:09:02.803Z,12.00
2022-11-15T20:11:40.678Z,12.00
2022-11-15T20:14:09.652Z,12.00
2022-11-15T20:16:36.581Z,12.00
2022-11-15T20:19:03.464Z,12.00
2022-11-15T20:21:30.357Z,12.00
2022-11-15T20:23:57.418Z,12.00
2022-11-15T20:26:24.358Z,12.00
2022-11-15T20:28:51.252Z,12.00
2022-11-15T20:31:18.095Z,12.00
2022-11-15T20:33:45.173Z,12.00
2022-11-15T20:36:14.434Z,12.00
2022-11-15T20:38:41.709Z,12.00
2022-11-15T20:41:13.607Z,12.00
2022-11-15T20:43:43.651Z,12.00
2022-11-15T20:46:11.988Z,12.00
2022-11-15T20:48:39.214Z,12.00
2022-11-15T20:51:10.651Z,12.00
2022-11-15T20:53:37.472Z,12.00
2022-11-15T20:56:07.671Z,12.00
2022-11-15T20:58:36.121Z,12.00
2022-11-15T21:01:04.551Z,12.00
2022-11-15T21:03:31.788Z,12.00
2022-11-15T21:05:59.131Z,12.00
2022-11-15T21:08:25.939Z,12.00
2022-11-15T21:11:12.522Z,12.00
2022-11-15T21:13:39.817Z,12.00
2022-11-15T21:16:07.372Z,12.00
2022-11-15T21:18:34.685Z,12.00
2022-11-15T21:21:04.133Z,12.00
2022-11-15T21:23:31.038Z,12.00
2022-11-15T21:25:57.902Z,12.00
2022-11-15T21:28:24.743Z,12.00
2022-11-15T21:31:01.914Z,12.00
2022-11-15T21:33:28.766Z,12.00
2022-11-15T21:35:56.170Z,12.00
2022-11-15T21:38:23.985Z,12.10
2022-11-15T21:40:51.971Z,12.00
2022-11-15T21:43:19.406Z,12.00
2022-11-15T21:46:00.385Z,12.00
2022-11-15T21:48:28.136Z,12.00
2022-11-15T21:51:00.131Z,12.10
2022-11-15T21:53:27.671Z,12.00
2022-11-15T21:55:54.892Z,12.00
2022-11-15T21:58:22.359Z,12.00
2022-11-15T22:01:08.453Z,12.00
2022-11-15T22:03:35.973Z,12.00
2022-11-15T22:06:02.796Z,12.00
2022-11-15T22:08:31.397Z,12.00
2022-11-15T22:10:58.935Z,12.00
2022-11-15T22:13:26.451Z,12.00
2022-11-15T22:15:54.291Z,12.00
2022-11-15T22:18:31.443Z,12.10
2022-11-15T22:21:00.246Z,12.00
2022-11-15T22:23:28.713Z,12.00
2022-11-15T22:25:55.795Z,12.00
2022-11-15T22:28:22.630Z,12.00
2022-11-15T22:30:51.160Z,12.00
2022-11-15T22:33:19.138Z,12.00
2022-11-15T22:35:46.330Z,12.00
2022-11-15T22:38:13.423Z,12.00
2022-11-15T22:40:40.277Z,12.00
2022-11-15T22:43:07.275Z,12.00
2022-11-15T22:45:34.251Z,12.00
2022-11-15T22:48:01.047Z,12.00
2022-11-15T22:50:27.897Z,12.00
2022-11-15T22:52:54.699Z,12.00
2022-11-15T22:55:22.547Z,12.00
2022-11-15T22:57:49.351Z,12.00
2022-11-15T23:00:16.786Z,12.00
2022-11-15T23:02:43.585Z,12.00
2022-11-15T23:05:10.751Z,12.00
2022-11-15T23:07:37.694Z,12.00
2022-11-15T23:10:23.236Z,12.00
2022-11-15T23:13:08.657Z,12.00
2022-11-15T23:15:54.103Z,12.00
2022-11-15T23:18:20.857Z,12.00
2022-11-15T23:20:47.618Z,12.00
2022-11-15T23:23:14.448Z,12.00
2022-11-15T23:25:41.214Z,12.00
2022-11-15T23:28:07.982Z,12.00
2022-11-15T23:30:54.489Z,12.00
2022-11-15T23:33:40.235Z,12.10
2022-11-15T23:36:07.854Z,12.10
2022-11-15T23:38:37.223Z,12.00
2022-11-15T23:41:05.378Z,12.00
2022-11-15T23:43:32.506Z,12.00
2022-11-15T23:46:02.370Z,12.10
2022-11-15T23:48:29.717Z,12.00
2022-11-15T23:50:56.596Z,12.00
2022-11-15T23:53:23.822Z,12.00
2022-11-15T23:56:09.910Z,12.10
2022-11-15T23:58:36.911Z,12.00
